Time,TemperatureF,DewpointF,PressureIn,WindDirection,WindDirectionDegrees,WindSpeedMPH,WindSpeedGustMPH,Humidity,HourlyPrecipIn,Conditions,Clouds,dailyrainin,SolarRadiationWatts/m^2,SoftwareType,DateUTC
2013-06-26 00:02:00,67.0,61.0,-100.00,SSE,162,1.0,2.0,82,0.00,,,0.00,0.000000,,2013-06-26 04:02:00,
2013-06-26 00:12:00,67.0,61.0,-100.00,SSE,162,1.0,2.0,82,0.00,,,0.00,0.000000,,2013-06-26 04:12:00,
2013-06-26 00:43:00,69.0,63.0,-100.00,SSE,164,0.0,1.0,82,0.00,,,0.00,0.000000,,2013-06-26 04:43:00,
2013-06-26 00:53:00,69.0,63.0,-100.00,SSE,164,0.0,1.0,82,0.00,,,0.00,0.000000,,2013-06-26 04:53:00,
2013-06-26 01:02:00,69.0,63.0,-100.00,SSE,164,0.0,1.0,82,0.00,,,0.00,0.000000,,2013-06-26 05:02:00,
2013-06-26 01:11:00,69.0,63.0,-100.00,SSE,164,0.0,1.0,82,0.00,,,0.00,0.000000,,2013-06-26 05:11:00,
2013-06-26 01:43:00,68.0,63.0,-100.00,WNW,302,1.0,2.0,83,0.00,,,0.00,0.000000,,2013-06-26 05:43:00,
2013-06-26 01:52:00,68.0,63.0,-100.00,WNW,302,1.0,2.0,83,0.00,,,0.00,0.000000,,2013-06-26 05:52:00,
2013-06-26 02:02:00,68.0,63.0,-100.00,WNW,302,1.0,2.0,83,0.00,,,0.00,0.000000,,2013-06-26 06:02:00,
2013-06-26 02:12:00,68.0,63.0,-100.00,WNW,302,1.0,2.0,83,0.00,,,0.00,0.000000,,2013-06-26 06:12:00,
2013-06-26 02:44:00,69.0,64.0,-100.00,WNW,302,0.0,1.0,84,0.00,,,0.00,0.000000,,2013-06-26 06:44:00,
2013-06-26 02:53:00,69.0,64.0,-100.00,WNW,302,0.0,1.0,84,0.00,,,0.00,0.000000,,2013-06-26 06:53:00,
2013-06-26 03:01:00,69.0,64.0,-100.00,WNW,302,0.0,1.0,84,0.00,,,0.00,0.000000,,2013-06-26 07:01:00,
2013-06-26 03:11:00,69.0,64.0,-100.00,WNW,302,0.0,1.0,84,0.00,,,0.00,0.000000,,2013-06-26 07:11:00,
2013-06-26 03:43:00,68.0,63.0,-100.00,NW,310,1.0,1.0,83,0.00,,,0.00,0.000000,,2013-06-26 07:43:00,
2013-06-26 03:53:00,68.0,63.0,-100.00,NW,310,1.0,1.0,83,0.00,,,0.00,0.000000,,2013-06-26 07:53:00,
2013-06-26 04:01:00,68.0,63.0,-100.00,NW,310,1.0,1.0,83,0.00,,,0.00,0.000000,,2013-06-26 08:01:00,
2013-06-26 04:11:00,68.0,63.0,-100.00,NW,310,1.0,1.0,83,0.00,,,0.00,0.000000,,2013-06-26 08:11:00,
2013-06-26 04:43:00,65.0,63.0,-100.00,NNW,337,1.0,1.0,92,0.00,,,0.00,0.000000,,2013-06-26 08:43:00,
2013-06-26 04:53:00,65.0,63.0,-100.00,NNW,337,1.0,1.0,92,0.00,,,0.00,0.000000,,2013-06-26 08:53:00,
2013-06-26 05:01:00,65.0,63.0,-100.00,NNW,337,1.0,1.0,92,0.00,,,0.00,0.000000,,2013-06-26 09:01:00,
2013-06-26 05:11:00,65.0,63.0,-100.00,NNW,337,1.0,1.0,92,0.00,,,0.00,0.000000,,2013-06-26 09:11:00,
2013-06-26 05:43:00,64.0,62.0,-100.00,East,97,1.0,1.0,92,0.00,,,0.00,0.000000,,2013-06-26 09:43:00,
2013-06-26 05:53:00,64.0,62.0,-100.00,East,97,1.0,1.0,92,0.00,,,0.00,0.000000,,2013-06-26 09:53:00,
2013-06-26 06:01:00,64.0,62.0,-100.00,East,97,1.0,1.0,92,0.00,,,0.00,0.000000,,2013-06-26 10:01:00,
2013-06-26 06:12:00,64.0,62.0,-100.00,East,97,1.0,1.0,92,0.00,,,0.00,0.000000,,2013-06-26 10:12:00,
2013-06-26 06:43:00,65.0,63.0,-100.00,NW,325,0.0,1.0,93,0.00,,,0.00,2.000000,,2013-06-26 10:43:00,
2013-06-26 06:53:00,65.0,63.0,-100.00,NW,325,0.0,1.0,93,0.00,,,0.00,2.000000,,2013-06-26 10:53:00,
2013-06-26 07:02:00,65.0,63.0,-100.00,NW,325,0.0,1.0,93,0.00,,,0.00,2.000000,,2013-06-26 11:02:00,
2013-06-26 07:12:00,65.0,63.0,-100.00,NW,325,0.0,1.0,93,0.00,,,0.00,2.000000,,2013-06-26 11:12:00,
2013-06-26 07:44:00,67.0,64.0,-100.00,NW,326,0.0,0.0,90,0.00,,,0.00,36.000000,,2013-06-26 11:44:00,
2013-06-26 07:52:00,67.0,64.0,-100.00,NW,326,0.0,0.0,90,0.00,,,0.00,36.000000,,2013-06-26 11:52:00,
2013-06-26 08:02:00,67.0,64.0,-100.00,NW,326,0.0,0.0,90,0.00,,,0.00,36.000000,,2013-06-26 12:02:00,
2013-06-26 08:12:00,67.0,64.0,-100.00,NW,326,0.0,0.0,90,0.00,,,0.00,36.000000,,2013-06-26 12:12:00,
2013-06-26 08:43:00,70.0,66.0,-100.00,NW,309,0.0,1.0,88,0.00,,,0.00,118.000000,,2013-06-26 12:43:00,
2013-06-26 08:52:00,70.0,66.0,-100.00,NW,309,0.0,1.0,88,0.00,,,0.00,118.000000,,2013-06-26 12:52:00,
2013-06-26 09:02:00,70.0,66.0,-100.00,NW,309,0.0,1.0,88,0.00,,,0.00,118.000000,,2013-06-26 13:02:00,
2013-06-26 09:11:00,70.0,66.0,-100.00,NW,309,0.0,1.0,88,0.00,,,0.00,118.000000,,2013-06-26 13:11:00,
2013-06-26 09:43:00,75.0,67.0,-100.00,SW,214,0.0,1.0,75,0.00,,,0.00,356.000000,,2013-06-26 13:43:00,
2013-06-26 09:53:00,75.0,67.0,-100.00,SW,214,0.0,1.0,75,0.00,,,0.00,356.000000,,2013-06-26 13:53:00,
2013-06-26 10:02:00,75.0,67.0,-100.00,SW,214,0.0,1.0,75,0.00,,,0.00,356.000000,,2013-06-26 14:02:00,
2013-06-26 10:12:00,75.0,67.0,-100.00,SW,214,0.0,1.0,75,0.00,,,0.00,356.000000,,2013-06-26 14:12:00,
2013-06-26 10:42:00,77.0,68.0,-100.00,WSW,248,0.0,0.0,75,0.00,,,0.00,449.000000,,2013-06-26 14:42:00,
2013-06-26 10:53:00,77.0,68.0,-100.00,WSW,248,0.0,0.0,75,0.00,,,0.00,449.000000,,2013-06-26 14:53:00,
2013-06-26 11:02:00,77.0,68.0,-100.00,WSW,248,0.0,0.0,75,0.00,,,0.00,449.000000,,2013-06-26 15:02:00,
2013-06-26 11:12:00,77.0,68.0,-100.00,WSW,248,0.0,0.0,75,0.00,,,0.00,449.000000,,2013-06-26 15:12:00,
2013-06-26 11:44:00,76.0,68.0,-100.00,WNW,294,0.0,0.0,76,0.00,,,0.00,364.000000,,2013-06-26 15:44:00,
2013-06-26 11:53:00,76.0,68.0,-100.00,WNW,294,0.0,0.0,76,0.00,,,0.00,364.000000,,2013-06-26 15:53:00,
2013-06-26 12:02:00,76.0,68.0,-100.00,WNW,294,0.0,0.0,76,0.00,,,0.00,364.000000,,2013-06-26 16:02:00,
2013-06-26 12:11:00,76.0,68.0,-100.00,WNW,294,0.0,0.0,76,0.00,,,0.00,364.000000,,2013-06-26 16:11:00,
2013-06-26 12:52:00,81.0,69.0,-100.00,NW,317,0.0,0.0,68,0.00,,,0.00,613.000000,,2013-06-26 16:52:00,
2013-06-26 13:02:00,81.0,69.0,-100.00,NW,317,0.0,0.0,68,0.00,,,0.00,613.000000,,2013-06-26 17:02:00,
2013-06-26 13:11:00,81.0,69.0,-100.00,NW,317,0.0,0.0,68,0.00,,,0.00,613.000000,,2013-06-26 17:11:00,
2013-06-26 13:43:00,76.0,65.0,-100.00,NW,311,0.0,1.0,69,0.00,,,0.00,568.000000,,2013-06-26 17:43:00,
2013-06-26 13:52:00,76.0,65.0,-100.00,NW,311,0.0,1.0,69,0.00,,,0.00,568.000000,,2013-06-26 17:52:00,
2013-06-26 14:01:00,76.0,65.0,-100.00,NW,311,0.0,1.0,69,0.00,,,0.00,568.000000,,2013-06-26 18:01:00,
2013-06-26 14:12:00,76.0,65.0,-100.00,NW,311,0.0,1.0,69,0.00,,,0.00,568.000000,,2013-06-26 18:12:00,
2013-06-26 14:43:00,77.0,65.0,-100.00,NW,322,1.0,1.0,66,0.00,,,0.00,408.000000,,2013-06-26 18:43:00,
2013-06-26 14:52:00,77.0,65.0,-100.00,NW,322,1.0,1.0,66,0.00,,,0.00,408.000000,,2013-06-26 18:52:00,
2013-06-26 15:02:00,77.0,65.0,-100.00,NW,322,1.0,1.0,66,0.00,,,0.00,408.000000,,2013-06-26 19:02:00,
2013-06-26 15:11:00,77.0,65.0,-100.00,NW,322,1.0,1.0,66,0.00,,,0.00,408.000000,,2013-06-26 19:11:00,
2013-06-26 15:43:00,74.0,63.0,-100.00,SW,226,1.0,1.0,69,0.00,,,0.00,269.000000,,2013-06-26 19:43:00,
2013-06-26 15:52:00,74.0,63.0,-100.00,SW,226,1.0,1.0,69,0.00,,,0.00,269.000000,,2013-06-26 19:52:00,
2013-06-26 16:02:00,74.0,63.0,-100.00,SW,226,1.0,1.0,69,0.00,,,0.00,269.000000,,2013-06-26 20:02:00,
2013-06-26 16:12:00,74.0,63.0,-100.00,SW,226,1.0,1.0,69,0.00,,,0.00,269.000000,,2013-06-26 20:12:00,
2013-06-26 16:43:00,73.0,66.0,-100.00,West,267,1.0,2.0,78,0.00,,,0.00,202.000000,,2013-06-26 20:43:00,
2013-06-26 16:53:00,73.0,66.0,-100.00,West,267,1.0,2.0,78,0.00,,,0.00,202.000000,,2013-06-26 20:53:00,
2013-06-26 17:02:00,73.0,66.0,-100.00,West,267,1.0,2.0,78,0.00,,,0.00,202.000000,,2013-06-26 21:02:00,
2013-06-26 17:12:00,73.0,66.0,-100.00,West,267,1.0,2.0,78,0.00,,,0.00,202.000000,,2013-06-26 21:12:00,
2013-06-26 17:43:00,73.0,68.0,-100.00,NW,314,1.0,3.0,85,0.00,,,0.00,195.000000,,2013-06-26 21:43:00,
2013-06-26 17:52:00,73.0,68.0,-100.00,NW,314,1.0,3.0,85,0.00,,,0.00,195.000000,,2013-06-26 21:52:00,
2013-06-26 18:01:00,73.0,68.0,-100.00,NW,314,1.0,3.0,85,0.00,,,0.00,195.000000,,2013-06-26 22:01:00,
2013-06-26 18:11:00,73.0,68.0,-100.00,NW,314,1.0,3.0,85,0.00,,,0.00,195.000000,,2013-06-26 22:11:00,
2013-06-26 18:43:00,76.0,66.0,-100.00,NW,324,1.0,1.0,72,0.00,,,0.00,390.000000,,2013-06-26 22:43:00,
2013-06-26 18:52:00,76.0,66.0,-100.00,NW,324,1.0,1.0,72,0.00,,,0.00,390.000000,,2013-06-26 22:52:00,
2013-06-26 19:02:00,76.0,66.0,-100.00,NW,324,1.0,1.0,72,0.00,,,0.00,390.000000,,2013-06-26 23:02:00,
2013-06-26 19:12:00,76.0,66.0,-100.00,NW,324,1.0,1.0,72,0.00,,,0.00,390.000000,,2013-06-26 23:12:00,
2013-06-26 19:43:00,71.0,64.0,-100.00,NNW,328,1.0,3.0,79,0.00,,,0.00,123.000000,,2013-06-26 23:43:00,
2013-06-26 19:53:00,71.0,64.0,-100.00,NNW,328,1.0,3.0,79,0.00,,,0.00,123.000000,,2013-06-26 23:53:00,
2013-06-26 20:01:00,71.0,64.0,-100.00,NNW,328,1.0,3.0,79,0.00,,,0.00,123.000000,,2013-06-27 00:01:00,
2013-06-26 20:12:00,71.0,64.0,-100.00,NNW,328,1.0,3.0,79,0.00,,,0.00,123.000000,,2013-06-27 00:12:00,
2013-06-26 20:43:00,69.0,64.0,-100.00,NW,318,2.0,4.0,83,0.00,,,-99.99,53.000000,,2013-06-27 00:43:00,
2013-06-26 20:53:00,69.0,64.0,-100.00,NW,318,2.0,4.0,83,0.00,,,-99.99,53.000000,,2013-06-27 00:53:00,
2013-06-26 21:01:00,69.0,64.0,-100.00,NW,318,2.0,4.0,83,0.00,,,-99.99,53.000000,,2013-06-27 01:01:00,
2013-06-26 21:11:00,69.0,64.0,-100.00,NW,318,2.0,4.0,83,0.00,,,-99.99,53.000000,,2013-06-27 01:11:00,
2013-06-26 21:43:00,67.0,64.0,-100.00,NW,317,1.0,3.0,90,0.00,,,0.00,7.000000,,2013-06-27 01:43:00,
2013-06-26 21:53:00,67.0,64.0,-100.00,NW,317,1.0,3.0,90,0.00,,,0.00,7.000000,,2013-06-27 01:53:00,
2013-06-26 22:01:00,67.0,64.0,-100.00,NW,317,1.0,3.0,90,0.00,,,0.00,7.000000,,2013-06-27 02:01:00,
2013-06-26 22:11:00,67.0,64.0,-100.00,NW,317,1.0,3.0,90,0.00,,,0.00,7.000000,,2013-06-27 02:11:00,
2013-06-26 22:42:00,66.0,63.0,-100.00,WNW,291,1.0,2.0,90,0.00,,,0.00,0.000000,,2013-06-27 02:42:00,
2013-06-26 22:52:00,66.0,63.0,-100.00,WNW,291,1.0,2.0,90,0.00,,,0.00,0.000000,,2013-06-27 02:52:00,
2013-06-26 23:02:00,66.0,63.0,-100.00,WNW,291,1.0,2.0,90,0.00,,,0.00,0.000000,,2013-06-27 03:02:00,
2013-06-26 23:11:00,66.0,63.0,-100.00,WNW,291,1.0,2.0,90,0.00,,,0.00,0.000000,,2013-06-27 03:11:00,
2013-06-26 23:42:00,66.0,64.0,-100.00,NW,306,2.0,5.0,94,0.00,,,0.00,0.000000,,2013-06-27 03:42:00,
2013-06-26 23:52:00,66.0,64.0,-100.00,NW,306,2.0,5.0,94,0.00,,,0.00,0.000000,,2013-06-27 03:52:00,